createdAt,value
2018-03-30T08:30:19.417Z,13.30
2018-03-30T08:30:48.834Z,15.20
2018-03-30T08:31:48.845Z,11.90
2018-03-30T08:32:48.837Z,11.70
2018-03-30T08:33:48.860Z,13.40
2018-03-30T08:34:48.858Z,12.90
2018-03-30T08:36:14.931Z,12.90
2018-03-30T08:36:49.518Z,11.30
2018-03-30T08:37:48.863Z,11.90
2018-03-30T08:38:48.891Z,13.90
2018-03-30T08:39:48.872Z,12.30
2018-03-30T08:40:48.874Z,12.80
2018-03-30T08:41:48.961Z,15.50
2018-03-30T08:42:49.268Z,13.20
2018-03-30T08:43:48.868Z,9.20
2018-03-30T08:44:48.875Z,9.20
2018-03-30T08:45:48.900Z,10.30
2018-03-30T08:46:48.894Z,12.10
2018-03-30T08:49:37.692Z,16.70
2018-03-30T08:50:24.396Z,14.70
2018-03-30T08:51:23.536Z,12.40
2018-03-30T08:52:32.073Z,10.00
2018-03-30T08:53:23.548Z,15.30
2018-03-30T08:54:23.542Z,14.50
2018-03-30T08:55:23.582Z,13.50
2018-03-30T08:56:23.554Z,16.00
2018-03-30T08:57:23.558Z,16.50
2018-03-30T08:58:25.209Z,16.10
2018-03-30T08:59:23.599Z,11.80
2018-03-30T09:00:23.563Z,9.10
2018-03-30T09:01:23.795Z,13.10
2018-03-30T09:02:23.585Z,14.10
2018-03-30T09:03:46.192Z,14.30
2018-03-30T09:04:23.591Z,14.30
2018-03-30T09:05:23.595Z,12.50
2018-03-30T09:06:23.624Z,12.90
2018-03-30T09:07:23.599Z,12.60
2018-03-30T09:08:37.667Z,15.70
2018-03-30T09:09:23.926Z,12.20
2018-03-30T09:10:23.626Z,14.80
2018-03-30T09:11:23.630Z,16.90
2018-03-30T09:12:23.622Z,14.20
2018-03-30T09:13:23.710Z,14.30
2018-03-30T09:15:03.180Z,14.20
2018-03-30T09:15:24.058Z,13.30
2018-03-30T09:16:23.643Z,13.70
2018-03-30T09:17:23.676Z,13.80
2018-03-30T09:18:23.684Z,14.10
2018-03-30T09:22:29.690Z,11.10
2018-03-30T09:26:31.633Z,13.20
2018-03-30T09:27:31.130Z,12.60
2018-03-30T09:28:42.122Z,14.10
2018-03-30T09:29:31.137Z,11.00
2018-03-30T09:30:31.134Z,12.50
2018-03-30T09:31:31.151Z,19.30
2018-03-30T09:32:31.181Z,14.40
2018-03-30T09:33:32.051Z,11.30
2018-03-30T09:34:31.201Z,13.30
2018-03-30T09:35:31.204Z,9.90
2018-03-30T09:36:31.210Z,12.20
2018-03-30T09:37:31.256Z,9.60
2018-03-30T09:40:08.536Z,11.70
2018-03-30T09:41:02.945Z,10.60
2018-03-30T09:42:02.969Z,9.10
2018-03-30T09:43:02.946Z,12.10
2018-03-30T09:46:13.237Z,11.70
2018-03-30T09:46:35.107Z,12.20
2018-03-30T09:47:35.117Z,11.50
2018-03-30T09:51:40.154Z,12.40
2018-03-30T09:52:38.422Z,11.60
2018-03-30T09:54:02.570Z,10.90
2018-03-30T09:54:38.465Z,12.10
2018-03-30T09:55:38.494Z,9.70
2018-03-30T09:56:38.468Z,10.40
2018-03-30T09:57:39.105Z,10.90
2018-03-30T09:58:38.547Z,10.50
2018-03-30T09:59:38.523Z,10.80
2018-03-30T10:00:38.537Z,10.30
2018-03-30T10:01:38.532Z,10.30
2018-03-30T10:02:38.537Z,10.80
2018-03-30T10:05:10.698Z,10.90
2018-03-30T10:06:10.681Z,11.30
2018-03-30T10:07:10.670Z,9.20
2018-03-30T10:08:10.670Z,10.80
2018-03-30T10:09:10.739Z,9.20
2018-03-30T10:10:10.722Z,11.10
2018-03-30T10:11:10.700Z,10.20
2018-03-30T10:12:10.698Z,9.50
2018-03-30T10:13:10.728Z,11.30
2018-03-30T10:16:05.541Z,9.40
2018-03-30T10:17:05.487Z,8.60
2018-03-30T10:18:05.551Z,7.20
2018-03-30T10:19:20.893Z,8.60
2018-03-30T10:20:05.542Z,8.00
2018-03-30T10:21:05.543Z,8.50
2018-03-30T10:22:05.550Z,9.10
2018-03-30T10:23:05.555Z,8.60
2018-03-30T10:24:09.016Z,8.30
2018-03-30T10:25:05.583Z,8.80
2018-03-30T10:26:05.632Z,8.80
2018-03-30T10:27:05.610Z,8.90
2018-03-30T10:28:05.618Z,7.80
2018-03-30T10:29:05.618Z,11.10
2018-03-30T10:31:46.896Z,9.60
2018-03-30T10:32:38.475Z,7.70
2018-03-30T10:33:38.492Z,8.60
2018-03-30T10:36:15.265Z,8.30
2018-03-30T10:37:15.306Z,9.10
2018-03-30T10:38:15.274Z,8.60
2018-03-30T10:39:26.407Z,8.40
2018-03-30T10:40:15.298Z,9.40
2018-03-30T10:41:15.303Z,7.70
2018-03-30T10:42:15.318Z,6.70
2018-03-30T10:43:16.235Z,6.00
2018-03-30T10:44:23.293Z,7.00
2018-03-30T10:45:15.349Z,6.00
2018-03-30T10:46:15.376Z,6.60
2018-03-30T10:47:15.369Z,7.10
2018-03-30T10:48:15.398Z,6.10
2018-03-30T10:49:17.311Z,6.40
2018-03-30T10:50:15.407Z,6.00
2018-03-30T10:51:15.414Z,5.90
2018-03-30T10:52:27.769Z,6.60
2018-03-30T10:53:15.437Z,6.50
2018-03-30T10:57:51.802Z,7.10
2018-03-30T10:58:46.243Z,7.20
2018-03-30T10:59:46.331Z,7.00
2018-03-30T11:00:46.249Z,6.50
2018-03-30T11:01:46.274Z,7.90
2018-03-30T11:02:46.257Z,7.70
2018-03-30T11:03:46.691Z,7.70
2018-03-30T11:04:51.399Z,7.60
2018-03-30T11:05:46.833Z,6.10
2018-03-30T11:06:46.311Z,7.40
2018-03-30T11:07:46.306Z,6.80
2018-03-30T11:08:46.333Z,5.90
2018-03-30T11:09:49.463Z,6.30
2018-03-30T11:10:46.414Z,4.50
2018-03-30T11:11:46.374Z,6.20
2018-03-30T11:12:46.408Z,6.20
2018-03-30T11:13:46.379Z,7.10
2018-03-30T11:15:07.440Z,7.40
2018-03-30T11:15:46.408Z,8.70
2018-03-30T11:16:46.436Z,6.50
2018-03-30T11:17:46.436Z,7.20
2018-03-30T11:18:46.567Z,6.10
2018-03-30T11:19:51.942Z,7.60
2018-03-30T11:20:46.449Z,6.20
2018-03-30T11:21:46.480Z,6.30
2018-03-30T11:22:46.854Z,6.20
2018-03-30T11:23:46.508Z,6.10
2018-03-30T11:26:48.239Z,5.50
2018-03-30T11:27:46.392Z,5.10
2018-03-30T11:28:46.388Z,6.20
2018-03-30T11:29:48.316Z,6.70
2018-03-30T11:30:46.421Z,7.40
2018-03-30T11:31:46.439Z,6.30
2018-03-30T11:32:46.416Z,7.70
2018-03-30T11:33:46.467Z,6.50
2018-03-30T11:34:47.718Z,6.50
2018-03-30T11:35:46.473Z,5.60
2018-03-30T11:36:46.470Z,5.80
2018-03-30T11:37:46.455Z,6.60
2018-03-30T11:38:47.262Z,6.10
2018-03-30T11:39:47.241Z,5.90
2018-03-30T11:40:54.296Z,4.80
2018-03-30T11:41:46.515Z,6.10
2018-03-30T11:42:46.508Z,6.80
2018-03-30T11:43:46.535Z,6.00
2018-03-30T11:44:46.546Z,6.90
2018-03-30T11:45:47.313Z,6.40
2018-03-30T11:46:46.559Z,7.10
2018-03-30T11:47:46.613Z,4.90
2018-03-30T11:48:46.584Z,6.80
2018-03-30T11:49:46.591Z,5.70
2018-03-30T11:51:07.645Z,6.20
2018-03-30T11:51:46.628Z,5.40
2018-03-30T11:52:46.606Z,5.70
2018-03-30T11:53:46.615Z,5.80
2018-03-30T11:54:46.787Z,5.90
2018-03-30T11:55:46.644Z,5.70
2018-03-30T11:56:46.642Z,6.20
2018-03-30T11:57:46.682Z,5.80
2018-03-30T11:58:49.336Z,5.70
2018-03-30T12:01:18.750Z,6.70
2018-03-30T12:02:18.766Z,6.40
2018-03-30T12:03:18.774Z,5.20
2018-03-30T12:04:18.782Z,5.20
2018-03-30T12:05:19.621Z,5.20
2018-03-30T12:06:18.802Z,7.20
2018-03-30T12:07:18.817Z,5.20
2018-03-30T12:08:18.814Z,5.00
2018-03-30T12:09:18.858Z,5.00
2018-03-30T12:10:43.877Z,5.40
2018-03-30T12:11:18.872Z,5.40
2018-03-30T12:12:18.869Z,5.20
2018-03-30T12:13:18.909Z,5.60
2018-03-30T12:14:18.918Z,4.20
2018-03-30T12:15:18.926Z,4.90
2018-03-30T12:16:38.002Z,5.50
2018-03-30T12:17:18.935Z,5.30
2018-03-30T12:18:18.966Z,5.60
2018-03-30T12:19:19.237Z,9.60
2018-03-30T12:20:19.001Z,6.20
2018-03-30T12:21:19.650Z,7.90
2018-03-30T12:22:19.074Z,6.60
2018-03-30T12:23:19.043Z,4.90
2018-03-30T12:24:19.059Z,4.80
2018-03-30T12:25:19.058Z,4.80
2018-03-30T12:26:37.506Z,4.80
2018-03-30T12:27:19.115Z,5.20
2018-03-30T12:28:19.119Z,4.30
2018-03-30T12:29:19.586Z,5.50
2018-03-30T12:30:19.396Z,3.90
2018-03-30T12:31:33.454Z,4.30
2018-03-30T12:32:19.172Z,5.20
2018-03-30T12:33:19.176Z,4.20
2018-03-30T12:34:30.354Z,5.10
2018-03-30T12:35:19.192Z,4.70
2018-03-30T12:36:40.534Z,5.00
2018-03-30T12:37:19.236Z,7.90
2018-03-30T12:38:19.236Z,5.20
2018-03-30T12:39:19.259Z,5.90
2018-03-30T12:40:19.267Z,4.80
2018-03-30T12:41:19.318Z,6.30
2018-03-30T12:42:19.285Z,3.70
2018-03-30T12:43:19.311Z,4.70
2018-03-30T12:44:19.307Z,4.90
2018-03-30T12:45:19.318Z,3.70
2018-03-30T12:46:19.731Z,4.10
2018-03-30T12:47:19.349Z,5.00
2018-03-30T12:48:19.357Z,4.70
2018-03-30T12:49:19.362Z,4.30
2018-03-30T12:50:20.313Z,5.00
2018-03-30T12:51:19.463Z,4.30
2018-03-30T12:52:19.418Z,4.50
2018-03-30T12:53:19.432Z,4.30
2018-03-30T12:54:19.429Z,4.00
2018-03-30T12:55:20.584Z,4.20
2018-03-30T12:56:25.037Z,4.30
2018-03-30T12:57:19.977Z,4.50
2018-03-30T12:58:19.490Z,4.10
2018-03-30T12:59:19.503Z,3.30
2018-03-30T13:00:19.522Z,3.20
2018-03-30T13:01:19.523Z,4.20
2018-03-30T13:02:38.026Z,3.30
2018-03-30T13:03:19.781Z,3.20
2018-03-30T13:04:19.588Z,3.80
2018-03-30T13:05:20.458Z,3.90
2018-03-30T13:06:19.607Z,4.40
2018-03-30T13:07:30.510Z,3.90
2018-03-30T13:08:19.647Z,3.70
2018-03-30T13:09:19.676Z,3.80
2018-03-30T13:10:19.652Z,4.50
2018-03-30T13:11:19.656Z,3.80
2018-03-30T13:12:25.031Z,3.80
2018-03-30T13:13:19.680Z,4.10
2018-03-30T13:14:19.738Z,3.30
2018-03-30T13:15:19.719Z,4.20
2018-03-30T13:16:19.731Z,3.40
2018-03-30T13:17:48.597Z,3.30
2018-03-30T13:18:19.745Z,3.10
2018-03-30T13:19:19.779Z,3.40
2018-03-30T13:20:19.783Z,3.30
2018-03-30T13:21:19.781Z,3.60
2018-03-30T13:22:21.505Z,3.50
2018-03-30T13:23:19.842Z,3.90
2018-03-30T13:24:19.808Z,3.70
2018-03-30T13:25:19.923Z,3.20
2018-03-30T13:26:20.424Z,3.30
2018-03-30T13:29:15.656Z,2.90
2018-03-30T13:29:53.043Z,2.60
2018-03-30T13:30:53.055Z,3.60
2018-03-30T13:31:53.068Z,3.30
2018-03-30T13:34:24.749Z,3.60
2018-03-30T13:35:24.706Z,3.10
2018-03-30T13:36:24.744Z,2.90
2018-03-30T13:37:24.766Z,3.70
2018-03-30T13:38:48.255Z,3.60
2018-03-30T13:39:24.769Z,3.10
2018-03-30T13:40:24.775Z,2.70
2018-03-30T13:41:24.799Z,3.00
2018-03-30T13:42:27.874Z,3.70
2018-03-30T13:43:24.799Z,2.80
2018-03-30T13:44:24.840Z,3.50
2018-03-30T13:45:24.833Z,3.30
2018-03-30T13:46:25.215Z,3.40
2018-03-30T13:47:24.859Z,2.80
2018-03-30T13:48:24.917Z,2.90
2018-03-30T13:49:24.865Z,2.60
2018-03-30T13:50:24.876Z,3.60
2018-03-30T13:51:24.902Z,3.00
2018-03-30T13:54:21.192Z,4.90
2018-03-30T13:55:20.162Z,5.70
2018-03-30T13:56:20.185Z,3.50
2018-03-30T13:57:20.191Z,2.70
2018-03-30T13:58:20.245Z,4.10
2018-03-30T13:59:20.198Z,2.80
2018-03-30T14:00:20.194Z,2.70
2018-03-30T14:01:20.218Z,3.60
2018-03-30T14:02:20.236Z,3.10
2018-03-30T14:03:42.184Z,3.70
2018-03-30T14:04:20.249Z,3.10
2018-03-30T14:05:20.249Z,3.60
2018-03-30T14:06:20.261Z,3.30
2018-03-30T14:07:20.266Z,3.50
2018-03-30T14:08:20.691Z,2.70
2018-03-30T14:09:20.281Z,2.10
2018-03-30T14:10:20.313Z,2.90
2018-03-30T14:11:20.431Z,2.60
2018-03-30T14:12:20.283Z,3.60
2018-03-30T14:13:21.163Z,3.30
2018-03-30T14:14:42.199Z,3.00
2018-03-30T14:15:20.323Z,2.20
2018-03-30T14:16:20.318Z,2.80
2018-03-30T14:17:20.337Z,2.60
2018-03-30T14:18:20.335Z,2.90
2018-03-30T14:19:22.205Z,2.90
2018-03-30T14:20:20.350Z,2.40
2018-03-30T14:21:20.373Z,2.30
2018-03-30T14:22:20.350Z,2.50
2018-03-30T14:23:49.187Z,2.30
2018-03-30T14:24:20.379Z,2.70
2018-03-30T14:25:20.384Z,2.60
2018-03-30T14:26:20.381Z,2.90
2018-03-30T14:27:20.377Z,2.80
2018-03-30T14:28:34.678Z,2.90
2018-03-30T14:29:20.458Z,2.80
2018-03-30T14:30:20.413Z,2.90
2018-03-30T14:31:20.402Z,2.60
2018-03-30T14:32:27.583Z,2.90
2018-03-30T14:33:31.185Z,2.30
2018-03-30T14:34:21.884Z,3.20
2018-03-30T14:35:42.135Z,3.80
2018-03-30T14:36:20.850Z,4.60
2018-03-30T14:37:20.444Z,4.10
2018-03-30T14:38:55.684Z,5.30
2018-03-30T14:39:20.454Z,5.40
2018-03-30T14:40:20.451Z,2.80
2018-03-30T14:41:20.459Z,3.90
2018-03-30T14:42:20.944Z,4.20
2018-03-30T14:43:20.459Z,2.80
2018-03-30T14:44:20.528Z,3.80
2018-03-30T14:45:20.473Z,5.00
2018-03-30T14:46:20.472Z,3.00
2018-03-30T14:47:20.513Z,2.70
2018-03-30T14:48:20.504Z,3.70
2018-03-30T14:49:21.418Z,3.00
2018-03-30T14:50:20.524Z,2.40
2018-03-30T14:51:20.514Z,2.80
2018-03-30T14:52:20.526Z,3.30
2018-03-30T14:53:21.179Z,2.30
2018-03-30T14:56:03.764Z,2.50
2018-03-30T14:57:02.815Z,2.40
2018-03-30T14:58:02.828Z,2.30
2018-03-30T14:59:05.000Z,2.80
2018-03-30T15:00:02.970Z,2.80
2018-03-30T15:01:02.822Z,3.20
2018-03-30T15:02:02.823Z,2.60
2018-03-30T15:03:02.838Z,2.30
2018-03-30T15:04:02.841Z,3.10
2018-03-30T15:05:42.287Z,2.50
2018-03-30T15:06:02.896Z,2.80
2018-03-30T15:07:03.372Z,2.50
2018-03-30T15:08:02.844Z,3.40
2018-03-30T15:09:02.873Z,4.40
2018-03-30T15:10:06.927Z,3.00
2018-03-30T15:11:02.868Z,2.50
2018-03-30T15:12:02.890Z,2.20
2018-03-30T15:13:03.337Z,2.70
2018-03-30T15:14:02.895Z,2.70
2018-03-30T15:15:08.316Z,3.40
2018-03-30T15:19:09.288Z,2.80
2018-03-30T15:20:03.442Z,3.00
2018-03-30T15:21:03.437Z,3.50
2018-03-30T15:22:03.453Z,3.50
2018-03-30T15:23:03.440Z,2.90
2018-03-30T15:24:03.454Z,2.80
2018-03-30T15:25:21.805Z,3.80
2018-03-30T15:26:03.459Z,2.70
2018-03-30T15:27:03.453Z,2.70
2018-03-30T15:28:03.460Z,2.90
2018-03-30T15:29:03.480Z,3.30
2018-03-30T15:30:24.805Z,2.60
2018-03-30T15:31:03.484Z,3.10
2018-03-30T15:32:03.484Z,3.80
2018-03-30T15:33:03.487Z,4.20
2018-03-30T15:34:03.505Z,2.90
2018-03-30T15:35:05.268Z,3.10
2018-03-30T15:36:03.486Z,2.50
2018-03-30T15:37:03.515Z,2.20
2018-03-30T15:38:03.509Z,3.00
2018-03-30T15:39:03.521Z,2.60
2018-03-30T15:40:25.280Z,3.20
2018-03-30T15:41:03.516Z,3.70
2018-03-30T15:42:03.529Z,2.40
2018-03-30T15:43:03.520Z,2.60
2018-03-30T15:44:03.525Z,3.30
2018-03-30T15:45:04.268Z,2.50
2018-03-30T15:46:03.522Z,2.20
2018-03-30T15:47:03.635Z,2.90
2018-03-30T15:48:03.560Z,2.90
2018-03-30T15:49:03.547Z,3.10
2018-03-30T15:50:03.801Z,2.60
2018-03-30T15:51:03.546Z,2.20
2018-03-30T15:52:03.547Z,2.10
2018-03-30T15:53:03.554Z,2.20
2018-03-30T15:54:03.551Z,3.10
2018-03-30T15:55:03.629Z,2.00
2018-03-30T15:56:03.575Z,3.00
2018-03-30T15:57:03.571Z,4.10
2018-03-30T15:58:03.561Z,2.50
2018-03-30T15:59:03.588Z,4.00
2018-03-30T16:00:03.641Z,2.20
2018-03-30T16:01:04.378Z,2.70
2018-03-30T16:02:03.595Z,1.90
2018-03-30T16:03:03.584Z,4.90
2018-03-30T16:04:03.589Z,1.60
2018-03-30T16:05:03.794Z,2.00
2018-03-30T16:06:03.596Z,2.00
2018-03-30T16:07:03.811Z,2.50
2018-03-30T16:08:03.596Z,2.80
2018-03-30T16:09:03.601Z,2.00
2018-03-30T16:10:11.286Z,1.80
2018-03-30T16:11:03.614Z,2.50
2018-03-30T16:12:04.546Z,2.80
2018-03-30T16:13:03.605Z,7.40
2018-03-30T16:14:03.612Z,3.40
2018-03-30T16:15:05.283Z,6.70
2018-03-30T16:16:03.627Z,6.90
2018-03-30T16:17:03.629Z,4.90
2018-03-30T16:18:03.612Z,4.60
2018-03-30T16:19:22.791Z,5.00
2018-03-30T16:20:21.815Z,4.30
2018-03-30T16:21:03.650Z,4.40
2018-03-30T16:22:03.659Z,2.70
2018-03-30T16:23:03.662Z,2.60
2018-03-30T16:24:03.701Z,1.90
2018-03-30T16:25:03.733Z,2.40
2018-03-30T16:26:03.668Z,2.20
2018-03-30T16:27:03.663Z,2.20
2018-03-30T16:28:03.657Z,2.80
2018-03-30T16:29:03.668Z,2.70
2018-03-30T16:30:03.662Z,2.80
2018-03-30T16:31:05.353Z,3.20
2018-03-30T16:32:03.666Z,3.10
2018-03-30T16:33:04.564Z,3.20
2018-03-30T16:34:03.670Z,4.30
2018-03-30T16:35:03.666Z,3.90
2018-03-30T16:36:21.796Z,4.70
2018-03-30T16:37:03.679Z,4.60
2018-03-30T16:38:03.693Z,2.80
2018-03-30T16:39:03.666Z,4.00
2018-03-30T16:40:03.789Z,4.90
2018-03-30T16:41:03.705Z,5.30
2018-03-30T16:42:08.832Z,4.70
2018-03-30T16:43:03.711Z,3.70
2018-03-30T16:44:03.707Z,3.00
2018-03-30T16:45:03.716Z,4.10
2018-03-30T16:46:03.705Z,3.00
2018-03-30T16:47:03.748Z,2.60
2018-03-30T16:48:03.694Z,3.00
2018-03-30T16:49:03.768Z,2.60
2018-03-30T16:50:03.706Z,3.70
2018-03-30T16:51:03.703Z,4.70
2018-03-30T16:52:11.336Z,3.80
2018-03-30T16:53:03.720Z,4.50
2018-03-30T16:54:03.700Z,3.50
2018-03-30T16:55:03.728Z,4.60
2018-03-30T16:56:03.723Z,4.50
2018-03-30T16:57:11.338Z,3.90
2018-03-30T16:58:03.733Z,3.10
2018-03-30T16:59:05.293Z,3.00
2018-03-30T17:00:03.749Z,3.20
2018-03-30T17:01:03.734Z,3.30
2018-03-30T17:02:04.318Z,3.50
2018-03-30T17:03:03.982Z,3.80
2018-03-30T17:04:03.750Z,4.40
2018-03-30T17:05:03.736Z,5.00
2018-03-30T17:06:03.750Z,4.20
2018-03-30T17:15:18.960Z,5.90
2018-03-30T17:16:18.876Z,5.70
2018-03-30T17:17:18.896Z,6.40
2018-03-30T17:18:24.427Z,6.20
2018-03-30T17:19:18.882Z,4.00
2018-03-30T17:20:18.884Z,4.70
2018-03-30T17:21:18.881Z,4.30
2018-03-30T17:22:40.487Z,4.70
2018-03-30T17:23:18.874Z,4.20
2018-03-30T17:24:18.873Z,3.90
2018-03-30T17:25:18.879Z,4.80
2018-03-30T17:26:18.910Z,3.90
2018-03-30T17:27:18.876Z,6.30
2018-03-30T17:29:53.655Z,4.60
2018-03-30T17:30:53.519Z,6.50
2018-03-30T17:31:53.530Z,5.30
2018-03-30T17:33:25.134Z,4.60
2018-03-30T17:33:53.495Z,4.20
2018-03-30T17:34:53.975Z,5.70
2018-03-30T17:35:53.496Z,3.30
2018-03-30T17:36:53.496Z,4.20
2018-03-30T17:38:04.816Z,3.70
2018-03-30T17:38:53.507Z,3.80
2018-03-30T17:39:53.506Z,5.40
2018-03-30T17:40:53.503Z,3.70
2018-03-30T17:45:09.864Z,3.80
2018-03-30T17:46:05.474Z,4.40
2018-03-30T17:47:04.850Z,5.70
2018-03-30T17:48:04.793Z,5.50
2018-03-30T17:49:04.783Z,5.00
2018-03-30T17:50:04.791Z,4.20
2018-03-30T17:51:04.791Z,4.80
2018-03-30T17:52:04.956Z,5.00
2018-03-30T17:53:04.790Z,4.60
2018-03-30T17:54:04.765Z,4.60
2018-03-30T17:55:04.771Z,6.50
2018-03-30T17:56:04.746Z,4.80
2018-03-30T17:57:04.758Z,4.70
2018-03-30T17:58:27.468Z,4.00
2018-03-30T17:59:04.748Z,5.40
2018-03-30T18:00:04.741Z,4.70
2018-03-30T18:01:04.751Z,4.80
2018-03-30T18:02:04.749Z,4.70
2018-03-30T18:03:04.916Z,5.20
2018-03-30T18:04:04.765Z,5.30
2018-03-30T18:05:04.803Z,4.90
2018-03-30T18:06:04.775Z,5.10
2018-03-30T18:07:04.821Z,5.60
2018-03-30T18:09:36.434Z,5.30
2018-03-30T18:10:36.974Z,4.10
2018-03-30T18:11:36.435Z,4.80
2018-03-30T18:12:36.833Z,5.30
2018-03-30T18:13:41.047Z,5.00
2018-03-30T18:14:37.024Z,4.80
2018-03-30T18:15:36.576Z,4.40
2018-03-30T18:16:36.413Z,4.70
2018-03-30T18:17:36.391Z,5.70
2018-03-30T18:18:36.458Z,5.00
2018-03-30T18:20:15.584Z,6.30
2018-03-30T18:20:36.369Z,6.20
2018-03-30T18:21:36.490Z,10.30
2018-03-30T18:22:36.376Z,5.00
2018-03-30T18:25:29.148Z,5.80
2018-03-30T18:26:08.041Z,8.80
2018-03-30T18:27:07.986Z,7.50
2018-03-30T18:28:07.993Z,8.90
2018-03-30T18:30:46.812Z,8.00
2018-03-30T18:31:41.121Z,7.90
2018-03-30T18:32:41.115Z,6.20
2018-03-30T18:34:03.049Z,8.20
2018-03-30T18:34:41.710Z,6.60
2018-03-30T18:35:41.115Z,6.80
2018-03-30T18:36:41.154Z,6.50
2018-03-30T18:37:41.134Z,6.50
2018-03-30T18:38:41.127Z,5.40
2018-03-30T18:46:38.870Z,8.60
2018-03-30T18:47:08.246Z,7.60
2018-03-30T18:48:08.251Z,8.90
2018-03-30T18:49:08.250Z,9.40
2018-03-30T18:50:08.278Z,9.70
2018-03-30T19:02:20.848Z,10.90
2018-03-30T19:02:59.203Z,9.30
2018-03-30T19:03:59.097Z,11.50
2018-03-30T19:04:59.104Z,10.60
2018-03-30T19:06:38.197Z,11.60
2018-03-30T19:06:59.120Z,14.20
2018-03-30T19:07:59.262Z,10.40
2018-03-30T19:08:59.061Z,11.00
2018-03-30T19:09:59.069Z,8.40
2018-03-30T19:12:59.677Z,10.70
2018-03-30T19:13:30.669Z,10.60
2018-03-30T19:14:30.669Z,10.20
2018-03-30T19:15:30.667Z,9.40
2018-03-30T19:16:49.386Z,11.80
2018-03-30T19:17:30.675Z,11.70
2018-03-30T19:18:30.662Z,11.30
2018-03-30T19:19:30.666Z,11.60
2018-03-30T19:20:30.650Z,11.30
2018-03-30T19:21:31.494Z,11.40
2018-03-30T19:22:31.315Z,11.10
2018-03-30T19:23:30.648Z,12.00
2018-03-30T19:24:30.647Z,11.50
2018-03-30T19:25:30.693Z,11.80
2018-03-30T19:26:30.680Z,10.60
2018-03-30T19:27:56.834Z,12.10
2018-03-30T19:28:30.704Z,12.20
2018-03-30T19:29:30.654Z,11.90
2018-03-30T19:30:30.647Z,11.30
2018-03-30T19:31:30.795Z,12.20
2018-03-30T19:32:30.718Z,13.80
2018-03-30T19:33:30.698Z,11.50
2018-03-30T19:34:30.695Z,11.50
2018-03-30T19:35:30.651Z,11.50
2018-03-30T19:36:30.676Z,13.60
2018-03-30T19:37:31.326Z,11.20
2018-03-30T19:38:31.498Z,10.60
2018-03-30T19:39:30.655Z,10.50
2018-03-30T19:40:30.649Z,11.70
2018-03-30T19:41:56.883Z,11.60
2018-03-30T19:42:30.649Z,12.30
2018-03-30T19:43:30.635Z,11.40
2018-03-30T19:44:30.632Z,12.70
2018-03-30T19:45:30.642Z,11.00
2018-03-30T19:46:30.664Z,11.40
2018-03-30T20:04:38.960Z,11.60
2018-03-30T20:05:20.356Z,11.10
2018-03-30T20:06:21.114Z,11.30
2018-03-30T20:07:20.389Z,12.60
2018-03-30T20:10:15.099Z,11.50
2018-03-30T20:10:52.045Z,13.10
2018-03-30T20:11:51.991Z,12.40
2018-03-30T20:12:52.049Z,13.70
2018-03-30T20:15:57.842Z,12.50
2018-03-30T20:16:23.551Z,13.00
2018-03-30T20:17:23.596Z,14.30
2018-03-30T20:20:36.561Z,13.70
2018-03-30T20:20:56.605Z,15.40
2018-03-30T20:21:56.355Z,12.50
2018-03-30T20:22:55.646Z,13.40
2018-03-30T20:23:55.707Z,13.10
2018-03-30T20:24:55.638Z,12.50
2018-03-30T20:25:55.827Z,13.70
2018-03-30T20:26:56.219Z,13.10
2018-03-30T20:27:55.641Z,13.30
2018-03-30T22:25:34.983Z,13.60
2018-03-30T22:26:16.860Z,15.10
2018-03-30T22:27:16.833Z,15.40
2018-03-30T22:28:16.837Z,16.50
2018-03-30T22:29:16.845Z,15.20
2018-03-30T22:43:49.567Z,15.80
2018-03-30T23:10:55.564Z,18.10
2018-03-30T23:11:31.456Z,18.60
2018-03-30T23:12:31.450Z,18.60
2018-03-30T23:13:31.456Z,20.10
